createdAt,value
2018-01-18T00:01:49.825Z,17.20
2018-01-18T00:04:17.553Z,17.20
2018-01-18T00:06:46.164Z,16.60
2018-01-18T00:09:14.001Z,16.50
2018-01-18T00:11:42.589Z,15.70
2018-01-18T00:14:10.405Z,15.60
2018-01-18T00:16:38.206Z,16.30
2018-01-18T00:19:06.188Z,16.30
2018-01-18T00:21:33.924Z,16.30
2018-01-18T00:24:01.710Z,16.20
2018-01-18T00:26:29.520Z,15.90
2018-01-18T00:28:57.261Z,15.90
2018-01-18T00:31:25.068Z,16.00
2018-01-18T00:33:57.552Z,15.40
2018-01-18T00:36:25.352Z,15.60
2018-01-18T00:38:53.176Z,15.50
2018-01-18T00:41:21.805Z,15.60
2018-01-18T00:43:49.541Z,15.20
2018-01-18T00:46:17.353Z,15.50
2018-01-18T00:48:45.116Z,15.10
2018-01-18T00:51:12.909Z,15.60
2018-01-18T00:53:40.641Z,15.70
2018-01-18T00:56:08.477Z,16.20
2018-01-18T00:58:36.288Z,16.10
2018-01-18T01:01:04.072Z,16.20
2018-01-18T01:03:31.791Z,16.20
2018-01-18T01:05:59.544Z,16.40
2018-01-18T01:08:27.349Z,16.40
2018-01-18T01:10:55.097Z,16.30
2018-01-18T01:13:22.931Z,16.30
2018-01-18T01:15:50.708Z,15.50
2018-01-18T01:18:18.522Z,16.40
2018-01-18T01:20:47.090Z,17.00
2018-01-18T01:23:14.837Z,17.00
2018-01-18T01:25:42.776Z,17.10
2018-01-18T01:28:10.534Z,17.40
2018-01-18T01:30:38.309Z,17.50
2018-01-18T01:33:06.129Z,17.90
2018-01-18T01:35:33.892Z,17.60
2018-01-18T01:38:01.705Z,17.70
2018-01-18T01:40:29.448Z,17.50
2018-01-18T01:42:57.200Z,17.20
2018-01-18T01:45:24.933Z,17.70
2018-01-18T01:47:52.745Z,17.70
2018-01-18T01:50:20.509Z,17.90
2018-01-18T01:52:49.033Z,17.70
2018-01-18T01:55:16.907Z,17.70
2018-01-18T01:57:44.653Z,17.70
2018-01-18T02:00:13.303Z,18.00
2018-01-18T02:02:41.107Z,18.00
2018-01-18T02:05:09.661Z,18.10
2018-01-18T02:07:37.456Z,18.00
2018-01-18T02:10:05.252Z,17.70
2018-01-18T02:12:32.985Z,17.80
2018-01-18T02:15:00.752Z,17.70
2018-01-18T02:17:29.340Z,17.60
2018-01-18T02:19:57.879Z,17.20
2018-01-18T02:22:25.621Z,17.20
2018-01-18T02:24:53.462Z,17.40
2018-01-18T02:27:22.048Z,17.80
2018-01-18T02:29:49.858Z,17.70
2018-01-18T02:32:17.640Z,17.40
2018-01-18T02:34:45.425Z,17.30
2018-01-18T02:37:14.160Z,17.00
2018-01-18T02:39:41.876Z,17.10
2018-01-18T02:42:09.694Z,16.70
2018-01-18T02:44:37.440Z,16.70
2018-01-18T02:47:05.990Z,17.20
2018-01-18T02:49:33.706Z,17.20
2018-01-18T02:52:01.514Z,17.70
2018-01-18T02:54:29.280Z,18.00
2018-01-18T02:56:57.025Z,18.20
2018-01-18T02:59:24.850Z,17.90
2018-01-18T03:01:52.659Z,17.90
2018-01-18T03:04:20.507Z,17.50
2018-01-18T03:06:48.247Z,17.30
2018-01-18T03:09:16.797Z,17.00
2018-01-18T03:11:44.549Z,17.00
2018-01-18T03:14:12.351Z,16.90
2018-01-18T03:16:40.150Z,17.00
2018-01-18T03:19:07.950Z,17.30
2018-01-18T03:21:35.736Z,17.60
2018-01-18T03:24:03.461Z,17.40
2018-01-18T03:26:31.232Z,17.50
2018-01-18T03:28:58.958Z,17.20
2018-01-18T03:31:26.700Z,17.20
2018-01-18T03:33:54.480Z,17.20
2018-01-18T03:36:23.001Z,17.30
2018-01-18T03:38:50.792Z,17.20
2018-01-18T03:41:18.601Z,16.90
2018-01-18T03:43:46.438Z,16.50
2018-01-18T03:46:14.264Z,16.90
2018-01-18T03:48:42.029Z,17.30
2018-01-18T03:51:09.802Z,17.60
2018-01-18T03:53:40.107Z,17.80
2018-01-18T03:56:07.898Z,17.90
2018-01-18T03:58:35.618Z,17.80
2018-01-18T04:01:03.485Z,17.80
2018-01-18T04:03:31.237Z,17.60
2018-01-18T04:05:59.071Z,17.30
2018-01-18T04:08:26.798Z,17.60
2018-01-18T04:10:54.510Z,17.80
2018-01-18T04:13:22.339Z,18.00
2018-01-18T04:15:50.128Z,18.00
2018-01-18T04:18:17.953Z,18.00
2018-01-18T04:20:45.740Z,17.90
2018-01-18T04:23:14.240Z,18.00
2018-01-18T04:25:41.963Z,18.00
2018-01-18T04:28:09.707Z,18.00
2018-01-18T04:30:37.521Z,17.90
2018-01-18T04:33:05.255Z,18.00
2018-01-18T04:35:33.022Z,18.10
2018-01-18T04:38:00.829Z,18.10
2018-01-18T04:40:28.623Z,18.00
2018-01-18T04:42:56.462Z,17.70
2018-01-18T04:45:24.213Z,17.90
2018-01-18T04:47:51.941Z,17.50
2018-01-18T04:50:19.730Z,17.00
2018-01-18T04:52:47.465Z,17.00
2018-01-18T04:55:15.265Z,17.30
2018-01-18T04:57:43.096Z,16.80
2018-01-18T05:00:10.849Z,16.30
2018-01-18T05:02:38.632Z,16.10
2018-01-18T05:05:06.403Z,16.40
2018-01-18T05:07:34.144Z,16.70
2018-01-18T05:10:01.887Z,17.20
2018-01-18T05:12:29.703Z,17.20
2018-01-18T05:14:57.462Z,16.80
2018-01-18T05:17:25.261Z,17.10
2018-01-18T05:19:53.003Z,17.00
2018-01-18T05:22:20.788Z,17.60
2018-01-18T05:24:48.566Z,17.70
2018-01-18T05:27:16.332Z,18.10
2018-01-18T05:29:44.099Z,18.00
2018-01-18T05:32:11.890Z,18.40
2018-01-18T05:34:40.589Z,19.40
2018-01-18T05:37:09.136Z,19.60
2018-01-18T05:39:36.909Z,19.60
2018-01-18T05:42:05.604Z,20.00
2018-01-18T05:47:17.502Z,20.30
2018-01-18T05:49:45.627Z,20.10
2018-01-18T05:52:13.494Z,19.50
2018-01-18T05:54:41.253Z,19.10
2018-01-18T05:57:09.878Z,18.90
2018-01-18T05:59:37.816Z,18.90
2018-01-18T06:02:05.678Z,18.40
2018-01-18T06:04:33.786Z,18.00
2018-01-18T06:07:01.728Z,17.60
2018-01-18T06:09:30.167Z,17.90
2018-01-18T06:11:58.093Z,16.90
2018-01-18T06:21:08.053Z,16.30
2018-01-18T06:23:35.795Z,16.30
2018-01-18T06:26:03.607Z,17.10
2018-01-18T06:28:31.376Z,16.80
2018-01-18T06:30:59.107Z,16.90
2018-01-18T06:33:26.842Z,17.90
2018-01-18T06:35:54.601Z,18.30
2018-01-18T06:38:22.334Z,18.60
2018-01-18T06:40:50.159Z,18.30
2018-01-18T06:43:17.984Z,18.50
2018-01-18T06:45:45.801Z,19.10
2018-01-18T06:48:14.310Z,19.50
2018-01-18T06:50:42.114Z,19.50
2018-01-18T06:53:09.941Z,19.30
2018-01-18T06:55:37.720Z,19.00
2018-01-18T06:58:05.534Z,19.20
2018-01-18T07:00:33.343Z,19.30
2018-01-18T07:03:01.153Z,18.70
2018-01-18T07:05:28.932Z,18.40
2018-01-18T07:07:56.757Z,18.60
2018-01-18T07:10:24.560Z,17.50
2018-01-18T07:12:52.397Z,17.70
2018-01-18T07:15:20.148Z,17.90
2018-01-18T07:17:47.955Z,18.00
2018-01-18T07:20:15.714Z,19.00
2018-01-18T07:22:43.454Z,18.80
2018-01-18T07:25:11.177Z,18.50
2018-01-18T07:27:39.751Z,18.70
2018-01-18T07:30:07.553Z,18.70
2018-01-18T07:32:35.373Z,18.70
2018-01-18T07:35:03.130Z,19.00
2018-01-18T07:37:30.932Z,19.20
2018-01-18T07:39:59.459Z,18.90
2018-01-18T07:42:27.203Z,18.90
2018-01-18T07:44:54.957Z,18.80
2018-01-18T07:47:22.808Z,18.60
2018-01-18T07:50:08.547Z,18.70
2018-01-18T07:52:36.380Z,18.90
2018-01-18T07:55:04.115Z,19.30
2018-01-18T07:57:31.923Z,19.10
2018-01-18T08:00:00.480Z,18.80
2018-01-18T08:02:28.340Z,19.10
2018-01-18T08:04:56.144Z,18.90
2018-01-18T08:07:23.880Z,18.90
2018-01-18T08:09:51.638Z,18.30
2018-01-18T08:12:19.396Z,18.90
2018-01-18T08:14:47.139Z,19.40
2018-01-18T08:17:14.863Z,20.30
2018-01-18T08:19:42.623Z,19.80
2018-01-18T08:22:10.405Z,19.30
2018-01-18T08:24:39.000Z,18.50
2018-01-18T08:27:06.824Z,18.40
2018-01-18T08:29:34.636Z,18.40
2018-01-18T08:32:02.364Z,18.40
2018-01-18T08:34:30.170Z,18.60
2018-01-18T08:36:58.005Z,18.80
2018-01-18T08:39:25.782Z,18.90
2018-01-18T08:41:53.638Z,19.00
2018-01-18T08:44:21.395Z,18.90
2018-01-18T08:46:49.220Z,18.80
2018-01-18T08:49:17.015Z,19.30
2018-01-18T08:51:44.744Z,19.00
2018-01-18T08:54:12.595Z,19.30
2018-01-18T08:56:41.088Z,17.40
2018-01-18T08:59:08.886Z,17.40
2018-01-18T09:01:36.608Z,17.60
2018-01-18T09:04:04.430Z,17.20
2018-01-18T09:06:32.243Z,15.80
2018-01-18T09:09:00.768Z,16.40
2018-01-18T09:11:28.601Z,16.30
2018-01-18T09:13:56.418Z,17.40
2018-01-18T09:16:24.195Z,17.60
2018-01-18T09:18:51.997Z,16.90
2018-01-18T09:21:20.630Z,15.90
2018-01-18T09:23:48.362Z,15.80
2018-01-18T09:26:16.159Z,16.40
2018-01-18T09:28:43.980Z,17.20
2018-01-18T09:31:12.479Z,18.00
2018-01-18T09:33:40.276Z,18.00
2018-01-18T09:36:08.025Z,18.30
2018-01-18T09:38:35.808Z,18.70
2018-01-18T09:41:03.553Z,19.60
2018-01-18T09:43:31.371Z,20.10
2018-01-18T09:45:59.142Z,19.30
2018-01-18T09:48:26.948Z,18.10
2018-01-18T09:50:54.708Z,17.20
2018-01-18T09:53:22.474Z,16.70
2018-01-18T09:55:50.299Z,16.60
2018-01-18T09:58:18.031Z,16.30
2018-01-18T10:00:45.797Z,16.70
2018-01-18T10:03:13.586Z,16.70
2018-01-18T10:05:41.382Z,16.00
2018-01-18T10:08:09.237Z,16.20
2018-01-18T10:10:37.019Z,16.10
2018-01-18T10:13:04.832Z,16.00
2018-01-18T10:15:32.741Z,16.40
2018-01-18T10:18:00.531Z,16.60
2018-01-18T10:20:28.320Z,17.80
2018-01-18T10:22:56.902Z,17.40
2018-01-18T10:25:24.717Z,17.30
2018-01-18T10:27:52.540Z,17.60
2018-01-18T10:30:21.093Z,16.60
2018-01-18T10:32:48.901Z,16.50
2018-01-18T10:35:16.741Z,15.60
2018-01-18T10:37:44.534Z,15.20
2018-01-18T10:40:13.057Z,16.90
2018-01-18T10:42:41.505Z,16.80
2018-01-18T10:45:09.247Z,17.50
2018-01-18T10:47:37.022Z,18.10
2018-01-18T10:50:04.770Z,17.60
2018-01-18T10:52:32.566Z,17.30
2018-01-18T10:55:00.400Z,17.00
2018-01-18T10:57:28.184Z,16.70
2018-01-18T10:59:55.929Z,17.20
2018-01-18T11:02:23.764Z,17.00
2018-01-18T11:04:51.575Z,16.10
2018-01-18T11:07:19.364Z,16.70
2018-01-18T11:09:47.117Z,16.50
2018-01-18T11:12:14.914Z,16.90
2018-01-18T11:14:42.636Z,16.70
2018-01-18T11:17:10.394Z,17.30
2018-01-18T11:19:38.189Z,17.90
2018-01-18T11:22:06.031Z,18.20
2018-01-18T11:24:34.625Z,18.00
2018-01-18T11:27:02.417Z,18.00
2018-01-18T11:29:30.259Z,18.60
2018-01-18T11:31:58.027Z,19.50
2018-01-18T11:34:25.808Z,18.80
2018-01-18T11:36:53.531Z,18.90
2018-01-18T11:39:21.300Z,19.30
2018-01-18T11:41:49.085Z,19.80
2018-01-18T11:44:16.816Z,18.00
2018-01-18T11:46:44.621Z,17.20
2018-01-18T11:49:12.406Z,17.80
2018-01-18T11:51:40.186Z,19.00
2018-01-18T11:54:07.976Z,20.60
2018-01-18T11:56:35.714Z,21.60
2018-01-18T11:59:03.481Z,22.00
2018-01-18T12:01:31.272Z,22.10
2018-01-18T12:03:59.023Z,21.40
2018-01-18T12:06:26.749Z,21.10
2018-01-18T12:08:54.456Z,20.80
2018-01-18T12:11:22.186Z,20.00
2018-01-18T12:13:49.930Z,19.30
2018-01-18T12:16:18.573Z,19.20
2018-01-18T12:18:47.093Z,17.90
2018-01-18T12:21:15.251Z,17.90
2018-01-18T12:23:43.030Z,18.70
2018-01-18T12:26:10.757Z,19.10
2018-01-18T12:28:38.583Z,19.30
2018-01-18T12:31:06.422Z,19.00
2018-01-18T12:33:34.164Z,19.30
2018-01-18T12:36:02.667Z,19.50
2018-01-18T12:38:30.454Z,19.40
2018-01-18T12:40:58.196Z,19.50
2018-01-18T12:43:25.945Z,20.30
2018-01-18T12:45:53.719Z,21.30
2018-01-18T12:48:22.220Z,22.00
2018-01-18T12:50:50.049Z,21.90
2018-01-18T12:53:17.809Z,21.70
2018-01-18T12:55:45.613Z,21.60
2018-01-18T12:58:14.185Z,21.90
2018-01-18T13:00:41.959Z,21.90
2018-01-18T13:03:09.759Z,21.60
2018-01-18T13:05:37.508Z,21.50
2018-01-18T13:08:05.258Z,21.20
2018-01-18T13:10:33.064Z,20.50
2018-01-18T13:13:00.888Z,19.70
2018-01-18T13:15:29.412Z,19.90
2018-01-18T13:17:57.187Z,19.90
2018-01-18T13:20:25.160Z,20.20
2018-01-18T13:22:52.888Z,19.40
2018-01-18T13:25:21.614Z,18.90
2018-01-18T13:27:49.439Z,18.90
2018-01-18T13:30:17.598Z,19.30
2018-01-18T13:32:45.400Z,19.30
2018-01-18T13:35:13.283Z,19.40
2018-01-18T13:37:41.418Z,20.00
2018-01-18T13:40:09.189Z,19.90
2018-01-18T13:42:36.911Z,20.20
2018-01-18T13:45:05.036Z,18.50
2018-01-18T13:47:32.797Z,18.50
2018-01-18T13:50:01.604Z,18.80
2018-01-18T13:52:29.405Z,18.80
2018-01-18T13:54:57.161Z,18.00
2018-01-18T13:57:24.925Z,18.20
2018-01-18T13:59:52.792Z,18.20
2018-01-18T14:02:20.653Z,18.70
2018-01-18T14:04:48.630Z,19.40
2018-01-18T14:07:16.496Z,20.00
2018-01-18T14:09:44.366Z,19.90
2018-01-18T14:12:12.329Z,19.90
2018-01-18T14:14:40.404Z,19.60
2018-01-18T14:17:08.269Z,20.10
2018-01-18T14:19:36.134Z,20.30
2018-01-18T14:22:03.993Z,20.40
2018-01-18T14:24:31.862Z,20.00
2018-01-18T14:26:59.732Z,19.60
2018-01-18T14:29:27.599Z,19.70
2018-01-18T14:31:55.459Z,19.70
2018-01-18T14:34:23.538Z,19.60
2018-01-18T14:36:51.398Z,19.60
2018-01-18T14:39:19.231Z,19.90
2018-01-18T14:41:47.005Z,19.70
2018-01-18T14:44:14.894Z,19.60
2018-01-18T14:46:42.771Z,19.40
2018-01-18T14:49:10.639Z,18.70
2018-01-18T14:51:38.498Z,17.90
2018-01-18T14:54:06.358Z,18.00
2018-01-18T14:56:34.223Z,18.20
2018-01-18T14:59:02.202Z,19.30
2018-01-18T15:01:30.061Z,19.60
2018-01-18T15:03:58.029Z,20.00
2018-01-18T15:06:25.904Z,20.60
2018-01-18T15:08:53.772Z,20.90
2018-01-18T15:11:21.630Z,21.20
2018-01-18T15:13:49.497Z,21.60
2018-01-18T15:16:17.371Z,21.70
2018-01-18T15:18:45.232Z,21.80
2018-01-18T15:21:13.103Z,21.80
2018-01-18T15:23:40.961Z,21.60
2018-01-18T15:26:08.940Z,21.20
2018-01-18T15:28:36.798Z,21.40
2018-01-18T15:31:04.671Z,21.50
2018-01-18T15:33:33.307Z,21.00
2018-01-18T15:36:01.217Z,21.00
2018-01-18T15:38:29.082Z,21.00
2018-01-18T15:40:56.949Z,20.40
2018-01-18T15:43:24.823Z,21.20
2018-01-18T15:45:52.680Z,21.70
2018-01-18T15:48:20.657Z,22.20
2018-01-18T15:50:48.631Z,22.50
2018-01-18T15:53:16.494Z,22.60
2018-01-18T15:55:44.360Z,22.70
2018-01-18T15:58:12.218Z,22.80
2018-01-18T16:00:40.086Z,23.00
2018-01-18T16:03:08.166Z,23.00
2018-01-18T16:05:36.022Z,23.00
2018-01-18T16:08:05.413Z,22.70
2018-01-18T16:10:33.300Z,23.00
2018-01-18T16:13:01.977Z,23.10
2018-01-18T16:15:29.959Z,23.20
2018-01-18T16:17:57.922Z,23.30
2018-01-18T16:20:27.298Z,23.30
2018-01-18T16:22:56.341Z,23.20
2018-01-18T16:25:25.610Z,23.40
2018-01-18T16:27:53.479Z,23.40
2018-01-18T16:30:21.351Z,23.30
2018-01-18T16:32:49.323Z,23.20
2018-01-18T16:35:18.267Z,23.20
2018-01-18T16:37:46.173Z,23.20
2018-01-18T16:40:14.046Z,23.30
2018-01-18T16:42:41.908Z,23.30
2018-01-18T16:45:09.872Z,23.30
2018-01-18T16:47:37.753Z,23.40
2018-01-18T16:50:05.709Z,23.30
2018-01-18T16:52:33.782Z,23.30
2018-01-18T16:55:02.317Z,23.30
2018-01-18T16:57:30.239Z,23.30
2018-01-18T16:59:59.028Z,23.20
2018-01-18T17:02:26.995Z,23.20
2018-01-18T17:04:54.958Z,23.20
2018-01-18T17:07:23.650Z,23.10
2018-01-18T17:09:52.016Z,23.10
2018-01-18T17:12:19.888Z,23.30
2018-01-18T17:14:47.760Z,23.30
2018-01-18T17:17:16.030Z,23.30
2018-01-18T17:19:44.008Z,23.30
2018-01-18T17:22:11.975Z,23.40
2018-01-18T17:24:39.964Z,23.40
2018-01-18T17:27:08.019Z,23.40
2018-01-18T17:29:36.089Z,23.40
2018-01-18T17:32:04.057Z,23.50
2018-01-18T17:34:31.919Z,23.40
2018-01-18T17:36:59.886Z,23.40
2018-01-18T17:39:27.759Z,23.50
2018-01-18T17:41:55.618Z,23.70
2018-01-18T17:44:23.688Z,23.70
2018-01-18T17:46:51.850Z,23.70
2018-01-18T17:49:19.836Z,23.70
2018-01-18T17:51:47.698Z,23.60
2018-01-18T17:54:15.575Z,23.50
2018-01-18T17:56:43.442Z,23.40
2018-01-18T17:59:11.297Z,23.40
2018-01-18T18:01:39.169Z,23.60
2018-01-18T18:04:08.366Z,23.50
2018-01-18T18:06:36.315Z,23.50
2018-01-18T18:09:04.305Z,23.50
2018-01-18T18:11:32.162Z,23.50
2018-01-18T18:14:00.042Z,23.60
2018-01-18T18:16:28.716Z,23.70
2018-01-18T18:18:56.585Z,23.60
2018-01-18T18:21:24.458Z,23.80
2018-01-18T18:23:52.427Z,23.90
2018-01-18T18:26:20.284Z,23.80
2018-01-18T18:28:48.255Z,23.80
2018-01-18T18:31:16.233Z,23.80
2018-01-18T18:33:48.977Z,23.90
2018-01-18T18:36:17.221Z,23.90
2018-01-18T18:38:45.863Z,23.80
2018-01-18T18:41:13.732Z,23.80
2018-01-18T18:43:41.596Z,23.80
2018-01-18T18:46:09.469Z,23.80
2018-01-18T18:48:37.437Z,23.80
2018-01-18T18:51:05.299Z,23.70
2018-01-18T18:53:33.174Z,23.70
2018-01-18T18:56:01.244Z,24.00
2018-01-18T18:58:29.114Z,24.20
2018-01-18T19:00:57.395Z,24.30
2018-01-18T19:03:26.068Z,24.30
2018-01-18T19:05:54.250Z,24.30
2018-01-18T19:08:22.309Z,24.40
2018-01-18T19:10:51.619Z,24.30
2018-01-18T19:13:19.775Z,24.10
2018-01-18T19:15:47.656Z,24.10
2018-01-18T19:18:15.521Z,24.20
2018-01-18T19:20:43.388Z,24.10
2018-01-18T19:23:11.362Z,24.20
2018-01-18T19:25:39.251Z,24.20
2018-01-18T19:28:08.323Z,24.10
2018-01-18T19:30:36.493Z,24.00
2018-01-18T19:33:04.557Z,24.00
2018-01-18T19:35:32.424Z,23.90
2018-01-18T19:38:00.401Z,23.80
2018-01-18T19:40:28.258Z,23.60
2018-01-18T19:42:56.445Z,23.50
2018-01-18T19:45:24.669Z,23.40
2018-01-18T19:47:54.224Z,23.20
2018-01-18T19:50:23.297Z,23.20
2018-01-18T19:52:52.475Z,23.20
2018-01-18T19:55:22.989Z,23.40
2018-01-18T19:57:53.307Z,23.30
2018-01-18T20:00:21.644Z,23.30
2018-01-18T20:02:49.507Z,23.30
2018-01-18T20:05:18.205Z,23.20
2018-01-18T20:07:46.992Z,23.20
2018-01-18T20:10:16.588Z,22.80
2018-01-18T20:12:46.584Z,22.80
2018-01-18T20:15:16.029Z,22.90
2018-01-18T20:17:46.495Z,23.00
2018-01-18T20:20:14.605Z,23.10
2018-01-18T20:22:44.273Z,23.20
2018-01-18T20:25:13.128Z,23.20
2018-01-18T20:27:43.021Z,23.40
2018-01-18T20:30:11.864Z,23.40
2018-01-18T20:32:40.278Z,23.50
2018-01-18T20:35:09.252Z,23.60
2018-01-18T20:37:38.546Z,23.00
2018-01-18T20:40:06.559Z,23.10
2018-01-18T20:42:36.267Z,23.20
2018-01-18T20:45:04.123Z,23.20
2018-01-18T20:47:33.365Z,23.30
2018-01-18T20:50:02.007Z,23.30
2018-01-18T20:52:29.975Z,23.30
2018-01-18T20:54:59.275Z,23.30
2018-01-18T20:57:27.141Z,23.30
2018-01-18T20:59:55.016Z,23.40
2018-01-18T21:02:24.226Z,23.50
2018-01-18T21:04:52.073Z,23.40
2018-01-18T21:07:19.948Z,23.30
2018-01-18T21:09:47.917Z,23.30
2018-01-18T21:12:15.798Z,23.40
2018-01-18T21:14:44.974Z,23.40
2018-01-18T21:17:12.948Z,23.40
2018-01-18T21:19:42.651Z,23.50
2018-01-18T21:22:10.629Z,23.60
2018-01-18T21:24:39.283Z,23.50
2018-01-18T21:27:07.178Z,23.50
2018-01-18T21:29:40.984Z,23.40
2018-01-18T21:32:08.956Z,23.40
2018-01-18T21:34:37.632Z,23.30
2018-01-18T21:37:05.496Z,23.30
2018-01-18T21:39:33.476Z,23.30
2018-01-18T21:42:01.343Z,23.20
2018-01-18T21:44:29.313Z,23.10
2018-01-18T21:46:57.167Z,23.10
2018-01-18T21:49:25.034Z,23.10
2018-01-18T21:51:53.010Z,23.10
2018-01-18T21:54:20.879Z,23.10
2018-01-18T21:56:48.735Z,23.00
2018-01-18T21:59:16.603Z,23.00
2018-01-18T22:01:44.536Z,22.90
2018-01-18T22:04:12.542Z,22.90
2018-01-18T22:06:40.406Z,22.90
2018-01-18T22:09:09.205Z,22.80
2018-01-18T22:11:37.062Z,22.70
2018-01-18T22:14:04.937Z,22.70
2018-01-18T22:16:32.794Z,22.70
2018-01-18T22:19:00.660Z,22.70
2018-01-18T22:21:28.527Z,22.70
2018-01-18T22:23:56.506Z,22.70
2018-01-18T22:26:24.361Z,22.90
2018-01-18T22:28:52.243Z,22.70
2018-01-18T22:31:20.096Z,22.60
2018-01-18T22:33:47.970Z,22.60
2018-01-18T22:36:15.831Z,22.60
2018-01-18T22:38:43.708Z,22.50
2018-01-18T22:41:11.562Z,22.40
2018-01-18T22:43:39.546Z,22.50
2018-01-18T22:46:07.512Z,22.40
2018-01-18T22:48:35.367Z,22.30
2018-01-18T22:51:03.259Z,22.30
2018-01-18T22:53:31.917Z,22.20
2018-01-18T22:55:59.785Z,22.20
2018-01-18T22:58:27.661Z,22.10
2018-01-18T23:00:55.527Z,22.10
2018-01-18T23:03:23.392Z,22.10
2018-01-18T23:05:51.361Z,22.00
2018-01-18T23:08:19.218Z,22.00
2018-01-18T23:10:47.093Z,22.00
2018-01-18T23:13:14.961Z,21.90
2018-01-18T23:15:42.710Z,21.90
2018-01-18T23:18:10.511Z,21.80
2018-01-18T23:20:38.264Z,21.80
2018-01-18T23:23:06.087Z,21.80
2018-01-18T23:25:33.850Z,21.70
2018-01-18T23:28:01.634Z,21.70
2018-01-18T23:30:29.358Z,21.60
2018-01-18T23:32:57.104Z,21.60
2018-01-18T23:35:24.845Z,21.60
2018-01-18T23:37:52.634Z,21.50
2018-01-18T23:40:20.466Z,21.50
2018-01-18T23:42:48.331Z,21.50
2018-01-18T23:45:16.083Z,21.40
2018-01-18T23:47:43.822Z,21.40
2018-01-18T23:50:11.637Z,21.30
2018-01-18T23:52:39.472Z,21.30
2018-01-18T23:55:08.036Z,21.20
2018-01-18T23:57:35.884Z,21.20
